Weather reports worldwide

Advertisment
Cairnwell, United Kingdom (3072): temperature & dewpoint: 19.01.2017 01:00:00 - 25.01.2017 01:00:00 (GMT)Cairnwell, United Kingdom (3072): wind speed & gusts: 19.01.2017 01:00:00 - 25.01.2017 01:00:00 (GMT)Cairnwell, United Kingdom (3072): wind direction: 19.01.2017 01:00:00 - 25.01.2017 01:00:00 (GMT)
Date & Time tt [°C] td [°C] ff [km/h] ff [kn] fx [km/h] fx [kn] dd
25.01.2017 01:00:00 4,1 4,1 57 31 74 40 SSW
25.01.2017 00:00:00 3,9 3,9 57 31 78 42 SSW
24.01.2017 23:00:00 3,9 3,9 67 36 89 48 SSW
24.01.2017 22:00:00 3,7 3,7 63 34 78 42 SSW
24.01.2017 21:00:00 3,5 3,5 52 28 81 44 SSW
24.01.2017 20:00:00 3,4 3,3 55 30 67 36 SSW
24.01.2017 19:00:00 3,2 3,2 48 26 57 31 SSW
24.01.2017 18:00:00 3,2 3,1 46 25 57 31 SSW
24.01.2017 17:00:00 3,4 3,4 41 22 48 26 S
24.01.2017 16:00:00 3,4 3,4 37 20 55 30 S
24.01.2017 15:00:00 3,3 3,3 44 24 63 34 SSW
24.01.2017 14:00:00 3,2 3,2 35 19 63 34 S
24.01.2017 13:00:00 3,2 3,2 42 23 70 38 SSW
24.01.2017 12:00:00 2,9 2,9 52 28 70 38 SSW
24.01.2017 11:00:00 2,8 2,8 59 32 76 41 SW
24.01.2017 10:00:00 2,5 2,5 57 31 74 40 SW
24.01.2017 09:00:00 2,1 2,1 54 29 65 35 SW
24.01.2017 08:00:00 1,8 1,8 52 28 63 34 SSW
24.01.2017 07:00:00 1,6 1,6 50 27 68 37 SSW
24.01.2017 06:00:00 1,2 1,2 48 26 63 34 S
24.01.2017 05:00:00 0,8 0,8 37 20 57 31 SSW
24.01.2017 04:00:00 0,4 0,4 50 27 81 44 SW
24.01.2017 03:00:00 0,0 0,0 61 33 - - SW
24.01.2017 02:00:00 -0,1 -0,1 54 29 80 43 SW
24.01.2017 01:00:00 -0,2 -0,2 57 31 78 42 SSW
24.01.2017 00:00:00 -0,5 -0,5 55 30 76 41 SW
23.01.2017 23:00:00 -0,8 -0,8 52 28 76 41 SSW
23.01.2017 22:00:00 -0,9 -0,9 55 30 67 36 SW
23.01.2017 21:00:00 -1,1 -1,1 44 24 70 38 SW
23.01.2017 20:00:00 -1,2 -1,2 50 27 61 33 SW
23.01.2017 19:00:00 -1,3 -1,3 46 25 61 33 SW
23.01.2017 18:00:00 -1,3 -1,3 48 26 63 34 SW
23.01.2017 17:00:00 -1,4 -1,4 44 24 61 33 SW
23.01.2017 16:00:00 -1,9 -2,5 37 20 55 30 SSW
23.01.2017 15:00:00 -1,8 -3,2 39 21 61 33 SSW
23.01.2017 14:00:00 -2,0 -3,2 44 24 48 26 SSW
23.01.2017 13:00:00 -1,7 -2,0 34 18 - - SSW
23.01.2017 12:00:00 -2,4 -3,0 34 18 - - SSW
23.01.2017 11:00:00 -2,0 -2,6 24 13 - - S
23.01.2017 10:00:00 -1,9 -2,3 11 6 - - SSW
23.01.2017 09:00:00 -1,8 -2,1 9 5 - - S
23.01.2017 08:00:00 -1,6 -1,6 8 4 - - SSE
23.01.2017 07:00:00 -1,7 -1,7 5 3 - - N
23.01.2017 06:00:00 -2,0 -2,0 11 6 - - NW
23.01.2017 05:00:00 -1,8 -1,8 11 6 - - WNW
23.01.2017 04:00:00 -1,8 -1,8 24 13 - - NW
23.01.2017 03:00:00 -2,3 -2,3 29 16 - - NW
23.01.2017 02:00:00 -2,4 -2,4 28 15 - - NW
23.01.2017 01:00:00 -2,1 -2,1 24 13 - - WNW
23.01.2017 00:00:00 -2,2 -2,2 22 12 - - WNW
22.01.2017 23:00:00 -2,1 -2,1 22 12 - - WNW
22.01.2017 22:00:00 -2,1 -2,1 24 13 - - W
22.01.2017 21:00:00 -2,0 -2,0 35 19 46 25 WNW
22.01.2017 20:00:00 -2,1 -2,1 29 16 - - NW
22.01.2017 19:00:00 -2,2 -2,2 31 17 - - NW
22.01.2017 18:00:00 -2,3 -2,3 29 16 - - NW
22.01.2017 17:00:00 -2,4 -2,4 34 18 - - NW
22.01.2017 16:00:00 -2,6 -2,6 29 16 - - NW
22.01.2017 15:00:00 -2,8 -2,9 16 9 - - NNW
22.01.2017 14:00:00 -2,8 -2,8 15 8 - - WNW
22.01.2017 13:00:00 -2,6 -2,6 9 5 - - W
22.01.2017 12:00:00 -2,8 -2,9 11 6 - - WNW
22.01.2017 11:00:00 -2,9 -2,9 8 4 - - WNW
22.01.2017 10:00:00 -3,2 -3,3 8 4 - - WNW
22.01.2017 09:00:00 -3,2 -3,2 5 3 - - SSW
22.01.2017 08:00:00 -3,1 -3,1 2 1 - - S
22.01.2017 07:00:00 -3,2 -3,2 4 2 - - W
22.01.2017 06:00:00 -3,0 -3,0 9 5 - - S
22.01.2017 05:00:00 -3,1 -3,1 4 2 - - SE
22.01.2017 04:00:00 -2,9 -2,9 5 3 - - SSE
22.01.2017 03:00:00 -2,8 -2,8 15 8 - - S
22.01.2017 02:00:00 -2,8 -2,8 22 12 - - SSE
22.01.2017 01:00:00 -3,2 -3,2 15 8 - - S
22.01.2017 00:00:00 -2,7 -3,1 15 8 - - S
21.01.2017 23:00:00 -2,0 -3,3 16 9 - - S
21.01.2017 22:00:00 -2,0 -3,5 24 13 - - S
21.01.2017 21:00:00 -1,8 -3,8 22 12 - - SSW
21.01.2017 20:00:00 -1,7 -3,5 28 15 - - SSW
21.01.2017 19:00:00 -1,4 -3,5 29 16 - - SSW
21.01.2017 18:00:00 -1,5 -2,8 29 16 - - SSW
21.01.2017 17:00:00 -1,0 -3,0 34 18 - - SSW
21.01.2017 16:00:00 -1,0 -3,3 28 15 - - SSW
21.01.2017 15:00:00 -0,6 -3,7 39 21 - - SSW
21.01.2017 14:00:00 -0,1 -3,2 37 20 50 27 SSW
21.01.2017 13:00:00 0,3 -3,6 41 22 50 27 SSW
21.01.2017 12:00:00 0,1 -4,1 41 22 48 26 SSW
21.01.2017 11:00:00 -0,4 -3,7 41 22 50 27 SW
21.01.2017 10:00:00 -0,4 -3,0 44 24 52 28 SW
21.01.2017 09:00:00 -0,8 -2,8 46 25 52 28 SW
21.01.2017 08:00:00 -1,1 -2,9 41 22 54 29 SW
21.01.2017 07:00:00 -0,7 -2,6 39 21 54 29 SW
21.01.2017 06:00:00 -0,3 -2,8 44 24 52 28 SW
21.01.2017 05:00:00 -0,1 -2,6 42 23 50 27 SW
21.01.2017 04:00:00 -0,2 -2,0 29 16 - - SW
21.01.2017 03:00:00 0,9 -1,9 34 18 - - SW
21.01.2017 02:00:00 2,4 -1,2 29 16 - - SW
21.01.2017 01:00:00 3,2 -0,6 34 18 - - SW
21.01.2017 00:00:00 2,4 -0,5 26 14 - - S
20.01.2017 23:00:00 4,5 -2,7 28 15 - - S
20.01.2017 22:00:00 6,2 -2,3 26 14 - - S
20.01.2017 21:00:00 5,6 -1,1 24 13 - - SSE
20.01.2017 20:00:00 5,8 -1,4 24 13 - - SSE
20.01.2017 19:00:00 6,1 -0,9 15 8 - - SSE
20.01.2017 18:00:00 6,3 -2,3 11 6 - - SE
20.01.2017 17:00:00 6,5 -3,5 15 8 - - SSE
20.01.2017 16:00:00 7,4 -4,5 11 6 - - SE
20.01.2017 15:00:00 8,8 -10,5 4 2 - - E
20.01.2017 14:00:00 7,8 -11,2 8 4 - - NNE
20.01.2017 13:00:00 8,4 -13,4 4 2 - - NNE
20.01.2017 12:00:00 8,5 -7,4 5 3 - - WSW
20.01.2017 11:00:00 8,8 -8,9 4 2 - - WSW
20.01.2017 10:00:00 7,6 -4,0 5 3 - - WSW
20.01.2017 09:00:00 6,9 -2,3 9 5 - - WNW
20.01.2017 08:00:00 6,0 -1,3 11 6 - - WSW
20.01.2017 07:00:00 6,6 -1,3 9 5 - - W
20.01.2017 06:00:00 6,3 -0,6 16 9 - - W
20.01.2017 05:00:00 5,8 -0,5 16 9 - - WNW
20.01.2017 04:00:00 5,7 -1,1 13 7 - - W
20.01.2017 03:00:00 5,7 -1,1 18 10 - - W
20.01.2017 02:00:00 3,2 0,4 11 6 - - SSW
20.01.2017 01:00:00 2,0 2,0 9 5 - - SSW
20.01.2017 00:00:00 2,6 2,6 8 4 - - SE
19.01.2017 23:00:00 0,8 0,8 4 2 - - S
19.01.2017 22:00:00 1,4 1,4 8 4 - - SW
19.01.2017 21:00:00 2,1 2,1 4 2 - - E
19.01.2017 20:00:00 0,1 0,1 8 4 - - NW
19.01.2017 19:00:00 0,7 0,7 13 7 - - NW
19.01.2017 18:00:00 0,9 0,9 11 6 - - NW
19.01.2017 17:00:00 0,5 0,5 18 10 - - NW
19.01.2017 16:00:00 0,9 -0,8 15 8 - - WNW
19.01.2017 15:00:00 1,9 -0,9 22 12 - - WNW
19.01.2017 14:00:00 2,5 -1,6 15 8 - - NW
19.01.2017 13:00:00 2,2 -0,3 28 15 - - NW
19.01.2017 12:00:00 1,7 -0,7 24 13 - - NW
19.01.2017 11:00:00 1,4 -0,4 22 12 - - WNW
19.01.2017 10:00:00 1,1 1,1 9 5 - - W
19.01.2017 09:00:00 0,7 0,7 24 13 - - WNW
19.01.2017 08:00:00 0,5 0,5 9 5 - - NNW
19.01.2017 07:00:00 0,7 0,7 18 10 - - WNW
19.01.2017 06:00:00 0,9 0,9 24 13 46 25 WNW
19.01.2017 05:00:00 1,4 1,4 21 11 - - WSW
19.01.2017 04:00:00 1,1 1,0 37 20 54 29 W
19.01.2017 03:00:00 0,9 0,8 26 14 - - W
19.01.2017 02:00:00 1,5 1,5 11 6 - - SW
19.01.2017 01:00:00 1,1 1,1 9 5 - - WSW

tt = temperature
td = dewpoint
ff = wind speed
fx = gusts
dd = wind direction

Next stations